Time;durP1;ratioP1;P1;durP2;ratioP2;P2;SDS_P1;SDS_P2;PMS_P1;PMS_P2;Temp;Humidity;BMP_temperature;BMP_pressure;BME280_temperature;BME280_humidity;BME280_pressure;Samples;Min_cycle;Max_cycle;Signal;HPM_P1;HPM_P2
2022/11/06 00:00:20;;;;;;;18.47;13.33;;;5.40;99.90;;;;;;5054927;28;20025;-82
2022/11/06 00:02:46;;;;;;;19.10;12.43;;;5.30;99.90;;;;;;5054850;28;20055;-83
2022/11/06 00:07:56;;;;;;;17.77;12.63;;;5.10;99.90;;;;;;5055559;28;20031;-82
2022/11/06 00:10:22;;;;;;;20.73;12.83;;;5.00;99.90;;;;;;5055237;28;20029;-83
2022/11/06 00:12:48;;;;;;;15.97;12.33;;;5.00;99.90;;;;;;5054952;28;20029;-82
2022/11/06 00:15:14;;;;;;;15.70;11.90;;;4.90;99.90;;;;;;5053640;28;20139;-82
2022/11/06 00:17:39;;;;;;;17.97;11.90;;;4.80;99.90;;;;;;5055242;28;20120;-82
2022/11/06 00:20:06;;;;;;;20.43;13.80;;;4.80;99.90;;;;;;5055271;28;20053;-82
2022/11/06 00:22:32;;;;;;;20.70;14.33;;;4.70;99.90;;;;;;5054735;28;20017;-82
2022/11/06 00:24:59;;;;;;;18.07;12.83;;;4.70;99.90;;;;;;5039139;28;20026;-82
2022/11/06 00:27:24;;;;;;;20.77;14.20;;;4.60;99.90;;;;;;5050288;28;20383;-82
2022/11/06 00:29:50;;;;;;;20.17;13.50;;;4.60;99.90;;;;;;5034990;28;20025;-82
2022/11/06 00:32:15;;;;;;;17.77;13.70;;;4.50;99.90;;;;;;5034905;28;20435;-82
2022/11/06 00:34:41;;;;;;;18.83;12.87;;;4.50;99.90;;;;;;5044314;28;20051;-82
2022/11/06 00:37:06;;;;;;;19.30;13.20;;;4.50;99.90;;;;;;5054848;28;20469;-82
2022/11/06 00:39:32;;;;;;;16.53;12.33;;;4.40;99.90;;;;;;5054529;28;20187;-82
2022/11/06 00:41:57;;;;;;;18.60;12.10;;;4.40;99.90;;;;;;5054431;28;20497;-82
2022/11/06 00:44:23;;;;;;;17.00;12.87;;;4.40;99.90;;;;;;5046803;28;20382;-82
2022/11/06 00:46:48;;;;;;;15.87;12.23;;;4.30;99.90;;;;;;5034719;28;20029;-82
2022/11/06 00:49:14;;;;;;;16.60;11.90;;;4.30;99.90;;;;;;5034750;28;20033;-82
2022/11/06 00:51:40;;;;;;;18.73;12.93;;;4.30;99.90;;;;;;5034529;28;20127;-82
2022/11/06 00:54:08;;;;;;;17.13;12.60;;;4.30;99.90;;;;;;5035614;28;20116;-82
2022/11/06 00:56:34;;;;;;;17.13;12.27;;;4.20;99.90;;;;;;5033195;28;20041;-82
2022/11/06 00:59:01;;;;;;;18.50;12.50;;;4.20;99.90;;;;;;5034017;28;20029;-82
2022/11/06 01:01:33;;;;;;;18.63;12.17;;;4.20;99.90;;;;;;5032829;28;20025;-82
2022/11/06 01:04:01;;;;;;;17.77;11.73;;;4.20;99.90;;;;;;5040593;28;20041;-82
2022/11/06 01:06:29;;;;;;;17.03;12.67;;;4.10;99.90;;;;;;5053904;28;20024;-82
2022/11/06 01:08:56;;;;;;;16.50;11.80;;;4.10;99.90;;;;;;5052594;28;20049;-82
2022/11/06 01:11:24;;;;;;;16.77;11.70;;;4.00;99.90;;;;;;5054054;28;20056;-82
2022/11/06 01:13:51;;;;;;;15.40;11.23;;;4.00;99.90;;;;;;5053114;28;20017;-82
2022/11/06 01:16:18;;;;;;;16.33;12.10;;;4.00;99.90;;;;;;5053620;28;20033;-82
2022/11/06 01:18:44;;;;;;;18.70;12.40;;;3.90;99.90;;;;;;5053925;28;20094;-82
2022/11/06 01:21:17;;;;;;;17.07;12.13;;;3.90;99.90;;;;;;5053883;28;20111;-82
2022/11/06 01:23:43;;;;;;;18.57;11.93;;;3.90;99.90;;;;;;5053281;28;20032;-82
2022/11/06 01:26:11;;;;;;;15.50;11.50;;;3.90;99.90;;;;;;5053752;28;20097;-82
2022/11/06 01:28:38;;;;;;;18.70;12.63;;;3.80;99.90;;;;;;5053748;28;20496;-82
2022/11/06 01:31:05;;;;;;;16.63;11.70;;;3.80;99.90;;;;;;5036599;28;20041;-82
2022/11/06 01:33:31;;;;;;;16.60;11.90;;;3.80;99.90;;;;;;5037569;28;20111;-82
2022/11/06 01:35:57;;;;;;;17.63;11.70;;;3.80;99.90;;;;;;5033927;28;20447;-82
2022/11/06 01:38:22;;;;;;;14.67;10.87;;;3.80;99.90;;;;;;5033798;28;20078;-82
2022/11/06 01:40:48;;;;;;;15.00;11.00;;;3.80;99.90;;;;;;5033479;28;20071;-82
2022/11/06 01:43:42;;;;;;;15.97;11.10;;;3.80;99.90;;;;;;5034225;28;20029;-82
2022/11/06 01:46:08;;;;;;;17.57;11.53;;;3.80;99.90;;;;;;5053560;28;20017;-82
2022/11/06 01:48:34;;;;;;;15.40;11.47;;;3.70;99.90;;;;;;5053452;28;20493;-82
2022/11/06 01:50:59;;;;;;;14.90;10.50;;;3.70;99.90;;;;;;5053363;28;20037;-82
2022/11/06 01:53:26;;;;;;;19.07;12.83;;;3.70;99.90;;;;;;5052708;28;20044;-82
2022/11/06 01:56:00;;;;;;;18.60;12.23;;;3.60;99.90;;;;;;5033263;28;20382;-82
2022/11/06 01:58:29;;;;;;;14.30;10.57;;;3.60;99.90;;;;;;5033135;28;20069;-82
2022/11/06 02:00:54;;;;;;;13.30;10.00;;;3.50;99.90;;;;;;5033427;28;20470;-82
2022/11/06 02:03:20;;;;;;;12.60;9.20;;;3.50;99.90;;;;;;5046636;28;20040;-82
2022/11/06 02:05:46;;;;;;;13.77;9.83;;;3.40;99.90;;;;;;5052898;28;20113;-82
2022/11/06 02:08:15;;;;;;;13.37;9.07;;;3.40;99.90;;;;;;5052803;28;20082;-82
2022/11/06 02:10:42;;;;;;;16.27;10.70;;;3.40;99.90;;;;;;5059447;28;20035;-82
2022/11/06 02:13:24;;;;;;;19.13;13.83;;;3.30;99.90;;;;;;5058822;28;20032;-82
2022/11/06 02:16:15;;;;;;;21.97;13.67;;;3.30;99.90;;;;;;5060600;28;20051;-82
2022/11/06 02:19:11;;;;;;;18.53;12.60;;;3.30;99.90;;;;;;5051428;28;20473;-81
2022/11/06 02:22:03;;;;;;;16.47;10.67;;;3.20;99.90;;;;;;5050844;28;20029;-81
2022/11/06 02:24:40;;;;;;;14.97;10.37;;;3.20;99.90;;;;;;5051768;28;20127;-82
2022/11/06 02:27:13;;;;;;;15.20;10.40;;;3.20;99.90;;;;;;5050477;28;20031;-82
2022/11/06 02:29:56;;;;;;;14.90;10.03;;;3.20;99.90;;;;;;5047679;28;20036;-82
2022/11/06 02:32:33;;;;;;;16.27;10.37;;;3.20;99.90;;;;;;5049811;28;20031;-82
2022/11/06 02:35:04;;;;;;;12.43;9.30;;;3.20;99.90;;;;;;5051755;28;20032;-82
2022/11/06 02:37:35;;;;;;;17.00;10.40;;;3.20;99.90;;;;;;5051767;28;20100;-82
2022/11/06 02:40:04;;;;;;;17.27;10.57;;;3.10;99.90;;;;;;5050513;28;20062;-82
2022/11/06 02:42:35;;;;;;;13.27;9.47;;;3.10;99.90;;;;;;5032301;28;20033;-82
2022/11/06 02:45:02;;;;;;;15.30;9.70;;;3.10;99.90;;;;;;5032241;28;20049;-82
2022/11/06 02:47:31;;;;;;;13.10;9.53;;;3.10;99.90;;;;;;5032096;28;20108;-81
2022/11/06 02:50:11;;;;;;;12.97;9.87;;;3.10;99.90;;;;;;5032148;28;20029;-82
2022/11/06 02:52:44;;;;;;;13.03;9.70;;;3.10;99.90;;;;;;5031871;28;20505;-82
2022/11/06 02:55:22;;;;;;;12.83;9.70;;;3.00;99.90;;;;;;5032220;28;20025;-82
2022/11/06 02:57:53;;;;;;;13.00;9.67;;;3.10;99.90;;;;;;5032186;28;20021;-82
2022/11/06 03:00:20;;;;;;;13.67;9.30;;;3.00;99.90;;;;;;5033506;28;20028;-82
2022/11/06 03:02:54;;;;;;;11.73;8.80;;;3.00;99.90;;;;;;5052077;28;20033;-82
2022/11/06 03:05:31;;;;;;;13.20;9.07;;;3.00;99.90;;;;;;5052037;28;20034;-82
2022/11/06 03:08:12;;;;;;;13.13;9.27;;;3.00;99.90;;;;;;5052049;28;20350;-82
2022/11/06 03:10:58;;;;;;;11.63;8.80;;;2.90;99.90;;;;;;5049956;28;20024;-82
2022/11/06 03:13:35;;;;;;;12.33;8.93;;;2.90;99.90;;;;;;5052204;28;20032;-82
2022/11/06 03:16:13;;;;;;;11.63;8.83;;;2.80;99.90;;;;;;5052014;28;20438;-82
2022/11/06 03:18:53;;;;;;;11.47;8.60;;;2.80;99.90;;;;;;5051733;28;20040;-82
2022/11/06 03:21:42;;;;;;;13.57;9.20;;;2.80;99.90;;;;;;5054225;28;20150;-82
2022/11/06 03:24:26;;;;;;;13.43;9.23;;;2.70;99.90;;;;;;5055639;28;20100;-82
2022/11/06 03:26:53;;;;;;;11.23;8.33;;;2.70;99.90;;;;;;5055674;28;20017;-82
2022/11/06 03:29:33;;;;;;;12.70;9.13;;;2.70;99.90;;;;;;5047810;28;20025;-81
2022/11/06 03:32:05;;;;;;;11.90;8.70;;;2.70;99.90;;;;;;5042517;28;20033;-82
2022/11/06 03:34:38;;;;;;;13.53;9.07;;;2.60;99.90;;;;;;5051576;28;20109;-82
2022/11/06 03:37:16;;;;;;;13.63;9.30;;;2.60;99.90;;;;;;5055525;28;20115;-82
2022/11/06 03:39:47;;;;;;;12.30;8.77;;;2.50;99.90;;;;;;5055211;28;20462;-82
2022/11/06 03:42:27;;;;;;;13.93;9.20;;;2.50;99.90;;;;;;5055342;28;20021;-82
2022/11/06 03:44:59;;;;;;;14.07;9.50;;;2.40;99.90;;;;;;5054642;28;20059;-79
2022/11/06 03:47:33;;;;;;;16.23;11.03;;;2.40;99.90;;;;;;5050375;28;20025;-79
2022/11/06 03:50:15;;;;;;;15.17;10.80;;;2.40;99.90;;;;;;5043783;28;20035;-79
2022/11/06 03:52:49;;;;;;;14.67;10.60;;;2.40;99.90;;;;;;5053073;28;20448;-83
2022/11/06 03:55:18;;;;;;;13.90;9.77;;;2.30;99.90;;;;;;5053767;28;20035;-82
2022/11/06 03:57:52;;;;;;;16.43;9.27;;;2.30;99.90;;;;;;5055142;28;20025;-82
2022/11/06 04:00:22;;;;;;;16.77;10.07;;;2.20;99.90;;;;;;5055325;28;20484;-82
2022/11/06 04:02:51;;;;;;;13.97;8.93;;;2.20;99.90;;;;;;5053759;28;20203;-82
2022/11/06 04:05:21;;;;;;;11.97;8.97;;;2.20;99.90;;;;;;5054896;28;20021;-82
2022/11/06 04:13:57;;;;;;;13.40;9.53;;;2.20;99.90;;;;;;5051676;28;20103;-82
2022/11/06 04:16:33;;;;;;;13.73;9.27;;;2.10;99.90;;;;;;5034638;28;20139;-82
2022/11/06 04:18:59;;;;;;;12.50;8.97;;;2.10;99.90;;;;;;5034958;28;20037;-82
2022/11/06 04:21:46;;;;;;;12.47;8.50;;;2.10;99.90;;;;;;5033468;28;20159;-82
2022/11/06 04:27:28;;;;;;;13.13;8.37;;;2.00;99.90;;;;;;5054718;28;20082;-82
2022/11/06 04:30:17;;;;;;;13.40;8.20;;;1.90;99.90;;;;;;5046969;28;20025;-82
2022/11/06 04:33:19;;;;;;;10.30;7.40;;;1.90;99.90;;;;;;5027831;28;20037;-82
2022/11/06 04:36:05;;;;;;;9.93;7.50;;;1.80;99.90;;;;;;5033451;28;20451;-82
2022/11/06 04:38:41;;;;;;;10.63;8.00;;;1.80;99.90;;;;;;5034651;28;20030;-82
2022/11/06 04:41:15;;;;;;;10.57;7.40;;;1.80;99.90;;;;;;5034337;28;20037;-82
2022/11/06 04:43:45;;;;;;;10.40;6.88;;;1.70;99.90;;;;;;5052668;28;20136;-82
2022/11/06 04:46:16;;;;;;;10.70;7.60;;;1.70;99.90;;;;;;5054339;28;20351;-82
2022/11/06 04:48:43;;;;;;;10.23;7.80;;;1.70;99.90;;;;;;5053725;28;20021;-82
2022/11/06 04:51:12;;;;;;;10.53;7.77;;;1.70;99.90;;;;;;5053984;28;20025;-82
2022/11/06 04:53:39;;;;;;;10.60;7.03;;;1.70;99.90;;;;;;5051973;28;20036;-82
2022/11/06 04:56:31;;;;;;;9.87;7.80;;;1.70;99.90;;;;;;5053804;28;20417;-82
2022/11/06 04:58:56;;;;;;;9.43;7.10;;;1.80;99.90;;;;;;5053741;28;20071;-82
2022/11/06 05:01:22;;;;;;;12.07;7.90;;;1.80;99.90;;;;;;5053175;28;20060;-82
2022/11/06 05:03:48;;;;;;;13.37;8.87;;;1.80;99.90;;;;;;5053834;28;20029;-82
2022/11/06 05:06:14;;;;;;;11.97;8.30;;;1.80;99.90;;;;;;5053754;28;20049;-82
2022/11/06 05:08:39;;;;;;;15.43;9.03;;;1.90;99.90;;;;;;5053554;28;20443;-82
2022/11/06 05:11:06;;;;;;;15.33;9.00;;;1.90;99.90;;;;;;5053801;28;20029;-82
2022/11/06 05:13:31;;;;;;;15.13;9.90;;;1.90;99.90;;;;;;5035101;28;20450;-88
2022/11/06 05:15:58;;;;;;;14.00;9.70;;;2.00;99.90;;;;;;5034856;28;20153;-88
2022/11/06 05:18:25;;;;;;;15.27;10.10;;;2.00;99.90;;;;;;5034412;28;20088;-87
2022/11/06 05:23:34;;;;;;;15.60;9.47;;;2.00;99.90;;;;;;5034648;28;20071;-87
2022/11/06 05:26:00;;;;;;;15.40;9.60;;;2.10;99.90;;;;;;5050106;28;20108;-88
2022/11/06 05:28:25;;;;;;;14.97;9.63;;;2.10;99.90;;;;;;5054234;28;20116;-88
2022/11/06 05:30:51;;;;;;;13.93;9.70;;;2.10;99.90;;;;;;5039642;28;20033;-87
2022/11/06 05:33:16;;;;;;;13.13;9.17;;;2.10;99.90;;;;;;5034838;28;20030;-88
2022/11/06 05:35:42;;;;;;;16.60;8.27;;;2.10;99.90;;;;;;5034066;28;20034;-88
2022/11/06 05:38:08;;;;;;;18.60;9.40;;;2.00;99.90;;;;;;5034280;28;20029;-88
2022/11/06 05:40:33;;;;;;;28.07;9.37;;;1.90;99.90;;;;;;5034107;28;20088;-88
2022/11/06 05:42:59;;;;;;;12.13;8.77;;;1.90;99.90;;;;;;5048189;28;20025;-88
2022/11/06 05:45:24;;;;;;;15.07;9.10;;;1.70;99.90;;;;;;5053777;28;20469;-88
2022/11/06 05:47:50;;;;;;;13.13;8.50;;;1.70;99.90;;;;;;5053785;28;20017;-87
2022/11/06 05:50:15;;;;;;;11.70;8.60;;;1.70;99.90;;;;;;5053732;28;20029;-85
2022/11/06 05:52:41;;;;;;;11.90;8.47;;;1.60;99.90;;;;;;5053960;28;20029;-85
2022/11/06 05:55:07;;;;;;;13.30;9.00;;;1.60;99.90;;;;;;5037449;28;20021;-86
2022/11/06 05:57:33;;;;;;;14.97;9.73;;;1.60;99.90;;;;;;5033671;28;20075;-85
2022/11/06 05:59:58;;;;;;;13.00;8.90;;;1.60;99.90;;;;;;5033592;28;20681;-85
2022/11/06 06:02:24;;;;;;;13.70;8.37;;;1.60;99.90;;;;;;5045400;28;20456;-85
2022/11/06 06:04:50;;;;;;;22.27;15.33;;;1.60;99.90;;;;;;5052850;28;20028;-85
2022/11/06 06:07:15;;;;;;;25.93;15.53;;;1.60;99.90;;;;;;5052178;28;20095;-86
2022/11/06 06:09:41;;;;;;;26.03;17.17;;;1.60;99.90;;;;;;5053506;28;20028;-85
2022/11/06 06:12:09;;;;;;;14.40;10.40;;;1.60;99.90;;;;;;5053314;28;20028;-85
2022/11/06 06:14:35;;;;;;;16.50;10.87;;;1.60;99.90;;;;;;5040335;28;20382;-85
2022/11/06 06:17:00;;;;;;;12.17;8.77;;;1.60;99.90;;;;;;5033246;28;20042;-85
2022/11/06 06:19:26;;;;;;;11.47;8.33;;;1.60;99.90;;;;;;5033281;28;20109;-85
2022/11/06 06:21:52;;;;;;;13.10;7.83;;;1.60;99.90;;;;;;5033572;28;20069;-87
2022/11/06 06:24:18;;;;;;;10.50;7.50;;;1.70;99.90;;;;;;5032980;28;20500;-87
2022/11/06 06:26:44;;;;;;;10.67;7.37;;;1.70;99.90;;;;;;5033946;28;20528;-87
2022/11/06 06:29:09;;;;;;;12.17;8.80;;;1.70;99.90;;;;;;5032902;28;20567;-87
2022/11/06 06:31:35;;;;;;;12.70;8.97;;;1.70;99.90;;;;;;5047460;28;20398;-87
2022/11/06 06:34:00;;;;;;;15.57;9.93;;;1.70;99.90;;;;;;5052897;28;20448;-87
2022/11/06 06:36:26;;;;;;;31.80;17.13;;;1.70;99.90;;;;;;5051584;28;20025;-87
2022/11/06 06:38:51;;;;;;;19.30;11.23;;;1.80;99.90;;;;;;5050866;28;20028;-87
2022/11/06 06:41:17;;;;;;;15.40;9.17;;;1.80;99.90;;;;;;5052689;28;20029;-87
2022/11/06 06:43:43;;;;;;;14.50;9.03;;;1.80;99.90;;;;;;5053029;28;20025;-87
2022/11/06 06:46:08;;;;;;;12.00;7.97;;;1.80;99.90;;;;;;5047540;28;20029;-87
2022/11/06 06:48:34;;;;;;;12.77;8.03;;;1.80;99.90;;;;;;5050162;28;20461;-85
2022/11/06 06:51:01;;;;;;;14.20;8.07;;;1.90;99.90;;;;;;5051188;28;20458;-83
2022/11/06 06:53:28;;;;;;;11.07;8.87;;;1.90;99.90;;;;;;5044214;28;20531;-85
2022/11/06 06:55:54;;;;;;;12.73;8.83;;;1.90;99.90;;;;;;5048447;28;20035;-87
2022/11/06 06:58:19;;;;;;;12.27;8.67;;;1.90;99.90;;;;;;5038020;28;20037;-87
2022/11/06 07:00:46;;;;;;;10.33;7.60;;;2.00;99.90;;;;;;5034179;28;20147;-87
2022/11/06 07:03:11;;;;;;;11.97;8.80;;;2.00;99.90;;;;;;5040759;28;20049;-87
2022/11/06 07:05:37;;;;;;;14.03;9.43;;;2.00;99.90;;;;;;5052587;28;20090;-87
2022/11/06 07:08:03;;;;;;;13.83;9.70;;;2.10;99.90;;;;;;5044806;28;20384;-86
2022/11/06 07:10:30;;;;;;;9.70;7.60;;;2.20;99.90;;;;;;5034848;28;20033;-85
2022/11/06 07:12:59;;;;;;;11.30;8.00;;;2.20;99.90;;;;;;5031465;28;20039;-85
2022/11/06 07:15:24;;;;;;;10.87;7.90;;;2.30;99.90;;;;;;5031371;28;20033;-85
2022/11/06 07:17:50;;;;;;;9.60;7.33;;;2.40;99.90;;;;;;5034953;28;20055;-85
2022/11/06 07:20:15;;;;;;;9.67;6.77;;;2.40;99.90;;;;;;5031027;28;20069;-85
2022/11/06 07:22:41;;;;;;;8.93;6.93;;;2.50;99.90;;;;;;5030952;28;20029;-85
2022/11/06 07:25:07;;;;;;;12.57;7.37;;;2.50;99.90;;;;;;5031153;28;20080;-85
2022/11/06 07:27:32;;;;;;;10.30;7.20;;;2.50;99.90;;;;;;5041930;28;20036;-82
2022/11/06 07:29:59;;;;;;;12.20;8.93;;;2.60;99.90;;;;;;5045652;28;20033;-84
2022/11/06 07:32:25;;;;;;;38.30;20.17;;;2.60;99.90;;;;;;5050622;28;20021;-81
2022/11/06 07:34:50;;;;;;;31.10;19.43;;;2.70;99.90;;;;;;5043128;28;20453;-81
2022/11/06 07:37:16;;;;;;;19.10;11.87;;;2.80;99.90;;;;;;5040242;28;20032;-81
2022/11/06 07:39:42;;;;;;;40.30;21.97;;;2.80;99.90;;;;;;5046840;28;20067;-85
2022/11/06 07:42:07;;;;;;;23.60;21.07;;;2.90;99.90;;;;;;5048830;28;20060;-85
2022/11/06 07:44:33;;;;;;;14.30;10.03;;;3.00;99.90;;;;;;5049188;28;20035;-85
2022/11/06 07:46:58;;;;;;;21.23;14.33;;;3.10;99.90;;;;;;5050049;28;20033;-86
2022/11/06 07:49:24;;;;;;;18.63;10.87;;;3.20;99.90;;;;;;5050531;28;20112;-86
2022/11/06 07:51:50;;;;;;;35.17;22.10;;;3.30;99.90;;;;;;5048552;28;20124;-86
2022/11/06 07:54:15;;;;;;;21.10;14.07;;;3.40;99.90;;;;;;5030903;28;20042;-86
2022/11/06 07:56:41;;;;;;;33.77;21.07;;;3.60;99.90;;;;;;5030638;28;20069;-87
2022/11/06 07:59:06;;;;;;;20.47;13.90;;;3.80;99.90;;;;;;5030642;28;20029;-86
2022/11/06 08:01:32;;;;;;;25.43;15.00;;;4.00;99.90;;;;;;5030624;28;20104;-87
2022/11/06 08:03:57;;;;;;;45.80;27.00;;;4.10;99.90;;;;;;5036130;28;20041;-87
2022/11/06 08:06:23;;;;;;;92.67;52.63;;;4.30;99.90;;;;;;5031060;28;20065;-86
2022/11/06 08:08:48;;;;;;;66.53;38.47;;;4.40;99.90;;;;;;5041872;28;20028;-87
2022/11/06 08:11:14;;;;;;;40.77;22.27;;;4.50;99.90;;;;;;5053578;28;20920;-87
2022/11/06 08:13:40;;;;;;;41.33;23.83;;;4.60;99.90;;;;;;5054131;28;20029;-86
2022/11/06 08:16:08;;;;;;;63.30;35.80;;;4.70;99.90;;;;;;5053797;28;20458;-86
2022/11/06 08:18:35;;;;;;;17.10;12.20;;;4.80;99.90;;;;;;5046501;28;20040;-86
2022/11/06 08:21:01;;;;;;;10.93;8.27;;;4.90;99.90;;;;;;5033699;28;20029;-86
2022/11/06 08:23:27;;;;;;;7.77;6.20;;;5.00;99.90;;;;;;5042428;28;20683;-85
2022/11/06 08:25:55;;;;;;;6.67;5.93;;;5.10;99.90;;;;;;5051090;28;20017;-85
2022/11/06 08:28:21;;;;;;;6.73;5.67;;;5.10;99.90;;;;;;5040642;28;20028;-85
2022/11/06 08:30:47;;;;;;;6.17;5.43;;;5.10;99.90;;;;;;5045796;28;20041;-79
2022/11/06 08:33:12;;;;;;;8.83;7.33;;;5.10;99.90;;;;;;5046474;28;20116;-79
2022/11/06 08:35:38;;;;;;;78.83;56.67;;;5.00;99.90;;;;;;5052677;28;20033;-79
2022/11/06 08:38:03;;;;;;;32.50;22.47;;;4.90;99.90;;;;;;5043701;28;20389;-80
2022/11/06 08:40:30;;;;;;;26.43;19.73;;;4.80;99.90;;;;;;5033335;28;20041;-82
2022/11/06 08:43:06;;;;;;;13.30;10.80;;;4.80;99.90;;;;;;5046241;28;20088;-82
2022/11/06 08:45:36;;;;;;;11.17;8.47;;;4.70;99.90;;;;;;5038452;28;20030;-82
2022/11/06 08:48:02;;;;;;;12.87;9.90;;;4.70;99.90;;;;;;5032086;28;20061;-82
2022/11/06 08:50:29;;;;;;;12.63;10.20;;;4.80;99.90;;;;;;5040447;28;20040;-82
2022/11/06 08:52:56;;;;;;;19.77;17.83;;;4.80;99.90;;;;;;5037606;28;20043;-82
2022/11/06 08:55:22;;;;;;;19.93;16.53;;;4.80;99.90;;;;;;5037122;28;20049;-82
2022/11/06 08:57:47;;;;;;;17.47;13.77;;;4.90;99.90;;;;;;5048801;28;20037;-82
2022/11/06 09:00:14;;;;;;;15.33;10.60;;;5.00;99.90;;;;;;5042971;28;20063;-82
2022/11/06 09:02:40;;;;;;;12.83;10.50;;;5.10;99.90;;;;;;5043877;28;20025;-82
2022/11/06 09:05:07;;;;;;;13.93;10.43;;;5.20;99.90;;;;;;5047399;28;20029;-83
2022/11/06 09:07:33;;;;;;;14.07;11.83;;;5.40;99.90;;;;;;5042110;28;20057;-82
2022/11/06 09:09:58;;;;;;;14.63;10.97;;;5.50;99.90;;;;;;5045378;28;20072;-82
2022/11/06 09:12:24;;;;;;;14.20;11.03;;;5.60;99.90;;;;;;5045042;28;20094;-82
2022/11/06 09:14:49;;;;;;;15.00;11.30;;;5.80;99.90;;;;;;5051054;28;20462;-82
2022/11/06 09:17:15;;;;;;;15.83;11.60;;;5.90;99.90;;;;;;5045914;28;20056;-81
2022/11/06 09:19:41;;;;;;;15.93;12.77;;;6.00;99.90;;;;;;5032880;28;20025;-82
2022/11/06 09:22:07;;;;;;;14.60;11.43;;;6.10;99.90;;;;;;5045984;28;20048;-82
2022/11/06 09:24:32;;;;;;;14.07;10.70;;;6.40;99.90;;;;;;5041868;28;20021;-82
2022/11/06 09:26:58;;;;;;;12.77;10.57;;;6.60;99.90;;;;;;5033964;28;20030;-83
2022/11/06 09:29:23;;;;;;;13.20;10.37;;;6.80;99.90;;;;;;5031723;28;20462;-82
2022/11/06 09:31:49;;;;;;;14.60;10.10;;;7.00;99.90;;;;;;5046065;28;20087;-82
2022/11/06 09:34:15;;;;;;;11.67;9.20;;;7.10;99.90;;;;;;5043601;28;20071;-82
2022/11/06 09:36:40;;;;;;;14.83;10.03;;;7.20;99.90;;;;;;5034404;28;20347;-82
2022/11/06 09:39:06;;;;;;;12.83;9.80;;;7.30;99.90;;;;;;5036394;28;20438;-82
2022/11/06 09:41:50;;;;;;;12.00;9.47;;;7.30;99.90;;;;;;5042426;28;20032;-82
2022/11/06 09:44:56;;;;;;;12.43;9.67;;;7.40;99.90;;;;;;5035946;28;20029;-82
2022/11/06 09:47:27;;;;;;;11.85;9.45;;;7.40;99.90;;;;;;5042479;28;20026;-83
2022/11/06 09:49:55;;;;;;;11.00;9.17;;;7.50;99.90;;;;;;5043029;28;20037;-82
2022/11/06 09:52:35;;;;;;;11.33;8.60;;;7.50;99.90;;;;;;5046666;28;20440;-82
2022/11/06 09:55:11;;;;;;;10.33;8.70;;;7.60;99.90;;;;;;5050552;28;20470;-82
2022/11/06 09:57:49;;;;;;;10.43;8.93;;;7.60;99.90;;;;;;5051053;28;20108;-82
2022/11/06 10:00:16;;;;;;;10.90;8.63;;;7.70;99.90;;;;;;5050552;28;20029;-82
2022/11/06 10:03:02;;;;;;;13.97;9.00;;;7.90;99.90;;;;;;5050534;28;20021;-82
2022/11/06 10:05:33;;;;;;;10.47;8.13;;;8.00;99.90;;;;;;5050631;28;20025;-82
2022/11/06 10:08:05;;;;;;;10.27;8.20;;;8.00;99.90;;;;;;5050418;28;20024;-82
2022/11/06 10:10:59;;;;;;;10.53;7.97;;;8.10;99.90;;;;;;5050557;28;20478;-82
2022/11/06 10:13:46;;;;;;;9.40;7.47;;;8.20;99.90;;;;;;5050414;28;20029;-82
2022/11/06 10:16:31;;;;;;;9.47;7.30;;;8.20;99.90;;;;;;5050224;28;20025;-82
2022/11/06 10:19:10;;;;;;;10.10;7.57;;;8.40;99.90;;;;;;5050193;28;20036;-82
2022/11/06 10:22:06;;;;;;;11.33;7.40;;;8.50;99.90;;;;;;5050204;28;20060;-82
2022/11/06 10:24:43;;;;;;;;;;;8.60;99.90;;;;;;5050900;28;20036;-82
2022/11/06 10:27:13;;;;;;;;;;;8.70;99.90;;;;;;5050696;28;19971;-82
2022/11/06 10:29:56;;;;;;;8.17;6.37;;;8.70;99.90;;;;;;5046614;28;19909;-82
2022/11/06 10:32:39;;;;;;;11.07;6.47;;;8.80;99.90;;;;;;5041251;28;20032;-82
2022/11/06 10:35:12;;;;;;;8.37;6.13;;;8.90;99.90;;;;;;5050356;28;20449;-82
2022/11/06 10:37:48;;;;;;;8.30;6.30;;;9.10;99.90;;;;;;5050382;28;20418;-83
2022/11/06 10:40:18;;;;;;;8.07;5.53;;;9.10;99.90;;;;;;5050901;28;20031;-83
2022/11/06 10:42:48;;;;;;;8.03;5.80;;;9.10;99.90;;;;;;5051750;28;20028;-82
2022/11/06 10:45:15;;;;;;;8.20;6.10;;;9.20;99.90;;;;;;5051233;28;20036;-83
2022/11/06 10:47:47;;;;;;;6.40;5.33;;;9.30;99.90;;;;;;5050789;28;20028;-82
2022/11/06 10:50:15;;;;;;;7.13;5.67;;;9.20;99.90;;;;;;5050977;28;20376;-80
2022/11/06 10:52:49;;;;;;;6.67;5.10;;;9.20;99.90;;;;;;5050942;28;20043;-82
2022/11/06 10:56:01;;;;;;;9.87;7.23;;;9.30;99.90;;;;;;5051235;28;20359;-82
2022/11/06 10:58:30;;;;;;;6.73;5.70;;;9.30;99.90;;;;;;5028516;28;20038;-83
2022/11/06 11:01:00;;;;;;;8.63;5.23;;;9.40;99.90;;;;;;5048508;28;20033;-83
2022/11/06 11:03:35;;;;;;;6.33;4.70;;;9.40;99.90;;;;;;5051565;28;20111;-83
2022/11/06 11:06:03;;;;;;;7.03;5.47;;;9.40;99.90;;;;;;5050716;28;20077;-83
2022/11/06 11:08:45;;;;;;;6.90;5.93;;;9.50;99.90;;;;;;5050905;28;20125;-82
2022/11/06 11:11:16;;;;;;;7.43;5.30;;;9.50;99.90;;;;;;5049373;28;20386;-82
2022/11/06 11:13:48;;;;;;;7.10;6.00;;;9.60;99.90;;;;;;5050952;28;20108;-82
2022/11/06 11:16:24;;;;;;;6.40;5.00;;;9.70;99.90;;;;;;5049322;28;20025;-83
2022/11/06 11:18:50;;;;;;;6.27;4.73;;;9.80;99.90;;;;;;5051918;28;20052;-83
2022/11/06 11:21:19;;;;;;;8.07;4.77;;;9.80;99.90;;;;;;5050384;28;20036;-83
2022/11/06 11:24:09;;;;;;;5.30;4.73;;;9.90;99.90;;;;;;5049071;28;20155;-82
2022/11/06 11:26:46;;;;;;;6.80;5.27;;;9.90;99.90;;;;;;5056341;28;20028;-83
2022/11/06 11:29:22;;;;;;;13.17;5.03;;;10.00;99.90;;;;;;5046196;28;20059;-82
2022/11/06 11:31:52;;;;;;;6.03;4.50;;;10.10;99.90;;;;;;5044809;28;20424;-83
2022/11/06 11:34:22;;;;;;;7.17;5.47;;;10.10;99.90;;;;;;5050226;28;20033;-82
2022/11/06 11:36:49;;;;;;;5.43;4.57;;;10.20;99.90;;;;;;5050534;28;20036;-82
2022/11/06 11:39:16;;;;;;;6.75;5.40;;;10.20;99.90;;;;;;5040606;28;20041;-82
2022/11/06 11:41:42;;;;;;;7.50;5.20;;;10.30;99.90;;;;;;5051497;28;20052;-83
2022/11/06 11:44:11;;;;;;;6.53;4.97;;;10.30;99.90;;;;;;5054938;28;20053;-88
2022/11/06 11:46:45;;;;;;;6.68;5.03;;;10.30;99.90;;;;;;5054646;28;20029;-88
2022/11/06 11:49:31;;;;;;;7.70;6.07;;;10.40;99.90;;;;;;5045458;28;20159;-88
2022/11/06 11:52:00;;;;;;;6.82;4.60;;;10.50;99.90;;;;;;5051897;28;20025;-88
2022/11/06 11:54:30;;;;;;;6.40;5.07;;;10.60;99.90;;;;;;5054103;28;20378;-88
2022/11/06 11:56:58;;;;;;;5.60;4.50;;;10.80;99.90;;;;;;5047269;28;20474;-88
2022/11/06 11:59:31;;;;;;;5.28;4.32;;;10.90;99.90;;;;;;5055221;28;20029;-88
2022/11/06 12:02:03;;;;;;;4.95;3.83;;;11.00;99.90;;;;;;5053688;28;20127;-83
2022/11/06 12:04:33;;;;;;;5.93;4.22;;;11.00;99.90;;;;;;5042015;28;20036;-88
2022/11/06 12:07:02;;;;;;;4.70;3.38;;;11.00;99.90;;;;;;5062798;28;20086;-88
2022/11/06 12:09:32;;;;;;;4.68;3.58;;;11.00;99.90;;;;;;5041411;28;20537;-88
2022/11/06 12:11:59;;;;;;;7.20;3.40;;;11.10;99.90;;;;;;5050654;28;20021;-88
2022/11/06 12:14:25;;;;;;;4.35;3.03;;;11.20;99.90;;;;;;5047257;28;20029;-88
2022/11/06 12:16:56;;;;;;;4.53;3.00;;;11.30;99.90;;;;;;5035453;28;20107;-88
2022/11/06 12:19:25;;;;;;;3.78;2.90;;;11.30;99.90;;;;;;5035580;28;20491;-88
2022/11/06 12:21:55;;;;;;;3.03;2.60;;;11.30;99.90;;;;;;5047855;28;20025;-88
2022/11/06 12:24:40;;;;;;;3.00;2.42;;;11.30;99.90;;;;;;5046982;28;20029;-88
2022/11/06 12:27:16;;;;;;;3.58;2.70;;;11.40;99.90;;;;;;5050285;28;20357;-89
2022/11/06 12:29:49;;;;;;;4.10;2.60;;;11.30;99.90;;;;;;5055399;28;20445;-88
2022/11/06 12:32:40;;;;;;;3.38;2.70;;;11.30;99.90;;;;;;5055310;28;20257;-89
2022/11/06 12:35:30;;;;;;;2.97;2.40;;;11.40;99.90;;;;;;5054627;28;20021;-89
2022/11/06 12:38:18;;;;;;;3.40;2.08;;;11.40;99.90;;;;;;5055123;28;20039;-89
2022/11/06 12:41:12;;;;;;;2.70;2.38;;;11.40;99.90;;;;;;5055184;28;20057;-89
2022/11/06 12:43:46;;;;;;;3.45;2.38;;;11.40;99.90;;;;;;5054848;28;20434;-89
2022/11/06 12:46:42;;;;;;;3.95;2.40;;;11.40;99.90;;;;;;5055550;28;20028;-89
2022/11/06 12:49:29;;;;;;;4.20;2.90;;;11.30;99.90;;;;;;5044114;28;20021;-88
2022/11/06 12:52:02;;;;;;;4.80;3.20;;;11.40;99.90;;;;;;5043110;28;20040;-88
2022/11/06 12:54:48;;;;;;;3.42;2.60;;;11.40;99.90;;;;;;5034332;28;20094;-87
2022/11/06 12:57:37;;;;;;;4.22;2.65;;;11.40;99.90;;;;;;5042579;28;20113;-88
2022/11/06 13:00:04;;;;;;;3.00;2.50;;;11.30;99.90;;;;;;5054604;28;20120;-89
2022/11/06 13:02:54;;;;;;;3.97;2.75;;;11.40;99.90;;;;;;5053854;28;20052;-88
2022/11/06 13:05:46;;;;;;;3.60;2.95;;;11.30;99.90;;;;;;5052504;28;20104;-88
2022/11/06 13:08:38;;;;;;;3.20;2.80;;;11.10;99.90;;;;;;5035122;28;20041;-88
2022/11/06 13:11:07;;;;;;;2.95;2.40;;;11.00;99.90;;;;;;5053672;28;20465;-88
2022/11/06 13:13:52;;;;;;;3.28;2.40;;;10.90;99.90;;;;;;5052593;28;20028;-81
2022/11/06 13:16:29;;;;;;;2.70;2.35;;;10.80;99.90;;;;;;5050005;28;20017;-80
2022/11/06 13:19:03;;;;;;;3.80;2.13;;;10.80;99.90;;;;;;5049558;28;20063;-83